Status Flugplatz

Der Flugplatz ist offen
PPR Regelung ! PJE !!!

123.15 MHz
RWY 05/23

flüger beizli - Öffnungszeiten
Freitag ab 16:00
Samstag +Sonntag ab 11:00
Bei schönem Wetter öffnen wir früher! Tel.: 079 234 07 74

Herzlich willkommen auf der Homepage des Flugplatz Biel-Kappelen

Wir freuen uns über Ihren Besuch auf unserem schönen Flugplatz im Berner Seeland. Ob zu Fuss, per Velo, Motorrad, Auto oder Flugzeug Sie sind uns jederzeit herzlich willkommen.

 

 

 


 

Wetter Kappelen

 


 

[source: ADDS]
METAR
LSZG 290650Z 06002KT 9999 FEW035 BKN051 19/18 Q1021 NOSIG =
TAF
TAF LSZG 290525Z 2906/2915 24007KT 9999 BKN060 TEMPO 2906/2909 SHRA SCT040TCU =
SR / SS: 04:48 / 18:16 UTC ( 2016-08-29)

 


 

Besucherzähler

HeuteHeute13
Seit BeginnSeit Beginn70746
Guests 1

Flugplatz Biel-Kappelen LSZP - 123.15MHz - 032 384 46 84

Email: Diese E-Mail-Adresse ist vor Spambots geschützt! Zur Anzeige muss JavaScript eingeschaltet sein!
www.lszp.ch
2013 © by mb

Zum Anfang